Time;durP1;ratioP1;P1;durP2;ratioP2;P2;SDS_P1;SDS_P2;PMS_P1;PMS_P2;Temp;Humidity;BMP_temperature;BMP_pressure;BME280_temperature;BME280_humidity;BME280_pressure;Samples;Min_cycle;Max_cycle;Signal;HPM_P1;HPM_P2
2023/03/24 00:00:50;;;;;;;32.40;20.60;;;;;;;11.08;59.21;100528.78;1767588;81;21210;-61
2023/03/24 00:03:56;;;;;;;34.70;21.52;;;;;;;11.06;59.17;100528.09;1767995;81;21230;-62
2023/03/24 00:07:03;;;;;;;30.62;20.52;;;;;;;11.05;59.20;100523.12;1768054;80;21738;-61
2023/03/24 00:10:09;;;;;;;37.05;21.35;;;;;;;11.05;59.21;100516.81;1767680;81;21230;-62
2023/03/24 00:13:15;;;;;;;34.38;21.15;;;;;;;11.04;59.20;100524.16;1767794;81;21257;-62
2023/03/24 00:16:21;;;;;;;28.87;20.05;;;;;;;11.04;59.21;100519.19;1767784;81;21222;-63
2023/03/24 00:19:27;;;;;;;35.98;21.73;;;;;;;11.05;59.22;100519.55;1767774;80;21214;-63
2023/03/24 00:22:35;;;;;;;42.33;21.80;;;;;;;11.05;59.21;100522.29;1767922;80;21195;-63
2023/03/24 00:25:41;;;;;;;38.25;22.90;;;;;;;11.04;59.22;100517.31;1750154;81;21215;-62
2023/03/24 00:28:47;;;;;;;39.80;23.15;;;;;;;11.04;59.20;100519.19;1767865;80;21222;-62
2023/03/24 00:31:55;;;;;;;39.88;24.32;;;;;;;11.03;59.21;100521.60;1767868;81;21317;-64
2023/03/24 00:35:02;;;;;;;36.63;23.22;;;;;;;11.01;59.22;100517.67;1767975;80;21249;-62
2023/03/24 00:38:10;;;;;;;36.40;22.05;;;;;;;11.02;59.26;100519.91;1768005;81;21171;-62
2023/03/24 00:41:18;;;;;;;39.40;21.95;;;;;;;11.01;59.19;100518.17;1768107;81;21206;-62
2023/03/24 00:44:25;;;;;;;41.28;23.67;;;;;;;11.00;59.16;100523.33;1767814;81;21258;-63
2023/03/24 00:47:35;;;;;;;41.10;22.67;;;;;;;10.98;59.19;100524.00;1767941;80;21258;-62
2023/03/24 00:50:40;;;;;;;34.98;21.30;;;;;;;10.98;59.15;100524.00;1767694;81;21250;-62
2023/03/24 00:53:46;;;;;;;32.33;21.62;;;;;;;10.95;59.13;100521.12;1767704;81;21218;-62
2023/03/24 00:56:55;;;;;;;36.77;21.25;;;;;;;10.93;59.12;100521.80;1767686;81;21230;-63
2023/03/24 01:00:09;;;;;;;37.53;22.25;;;;;;;10.91;59.14;100517.54;1764987;80;21178;-63
2023/03/24 01:03:13;;;;;;;37.93;21.25;;;;;;;10.90;59.20;100518.05;1767774;81;21183;-63
2023/03/24 01:06:22;;;;;;;37.60;22.00;;;;;;;10.88;59.17;100516.52;1767847;80;21194;-63
2023/03/24 01:09:27;;;;;;;35.50;22.15;;;;;;;10.87;59.18;100518.89;1767728;81;21226;-61
2023/03/24 01:12:39;;;;;;;39.63;23.32;;;;;;;10.86;59.22;100524.05;1767761;81;21249;-62
2023/03/24 01:15:47;;;;;;;46.48;24.77;;;;;;;10.85;59.26;100529.16;1767709;81;21234;-63
2023/03/24 01:18:53;;;;;;;49.35;26.25;;;;;;;10.86;59.29;100527.62;1767822;81;21201;-62
2023/03/24 01:22:01;;;;;;;47.40;26.40;;;;;;;10.86;59.32;100536.37;1767752;81;21360;-64
2023/03/24 01:25:08;;;;;;;40.33;23.52;;;;;;;10.85;59.32;100539.61;1767801;81;21719;-63
2023/03/24 01:28:13;;;;;;;37.60;22.82;;;;;;;10.85;59.30;100531.40;1768024;81;21261;-63
2023/03/24 01:31:19;;;;;;;34.35;23.22;;;;;;;10.84;59.26;100541.16;1768131;80;21238;-63
2023/03/24 01:34:25;;;;;;;35.25;22.93;;;;;;;10.82;59.24;100541.84;1767845;81;21194;-63
2023/03/24 01:37:31;;;;;;;34.05;21.90;;;;;;;10.81;59.25;100547.85;1767442;80;21233;-63
2023/03/24 01:40:40;;;;;;;39.45;22.30;;;;;;;10.82;59.36;100543.20;1767751;81;21370;-63
2023/03/24 01:43:46;;;;;;;36.10;21.65;;;;;;;10.83;59.39;100542.20;1768009;80;21206;-62
2023/03/24 01:46:52;;;;;;;34.73;23.55;;;;;;;10.83;59.37;100537.55;1768013;80;21269;-62
2023/03/24 01:50:04;;;;;;;36.90;21.73;;;;;;;10.83;59.35;100540.83;1768064;81;21324;-62
2023/03/24 01:53:10;;;;;;;35.85;21.55;;;;;;;10.81;59.32;100534.16;1767792;80;21198;-62
2023/03/24 01:56:16;;;;;;;37.45;20.97;;;;;;;10.78;59.30;100537.75;1768155;80;21230;-62
2023/03/24 01:59:30;;;;;;;37.53;21.35;;;;;;;10.77;59.34;100534.15;1767937;80;21356;-62
2023/03/24 02:02:39;;;;;;;33.38;20.65;;;;;;;10.76;59.40;100530.21;1766452;80;21229;-63
2023/03/24 02:05:45;;;;;;;29.48;20.80;;;;;;;10.76;59.47;100533.81;1767953;81;21194;-63
2023/03/24 02:09:04;;;;;;;31.97;20.50;;;;;;;10.75;59.49;100530.72;1767997;81;21183;-63
2023/03/24 02:12:10;;;;;;;32.42;19.90;;;;;;;10.75;59.53;100526.61;1767794;81;21345;-64
2023/03/24 02:15:17;;;;;;;25.85;19.05;;;;;;;10.76;59.58;100526.11;1767951;80;21210;-63
2023/03/24 02:18:32;;;;;;;33.02;19.85;;;;;;;10.77;59.64;100531.41;1768090;81;21214;-63
2023/03/24 02:22:19;;;;;;;29.20;19.30;;;;;;;10.78;59.63;100522.69;1767991;81;21191;-63
2023/03/24 02:25:57;;;;;;;32.70;18.98;;;;;;;10.77;59.62;100512.24;1767957;80;21274;-62
2023/03/24 02:29:37;;;;;;;34.13;19.70;;;;;;;10.77;59.66;100500.42;1768022;81;21245;-62
2023/03/24 02:33:02;;;;;;;32.03;19.10;;;;;;;10.75;59.68;100491.55;1767990;81;21203;-63
2023/03/24 02:36:38;;;;;;;26.82;18.15;;;;;;;10.72;59.70;100490.00;1768034;80;21376;-62
2023/03/24 02:40:06;;;;;;;31.62;19.00;;;;;;;10.70;59.75;100488.48;1768084;81;21179;-63
2023/03/24 02:43:32;;;;;;;28.47;17.30;;;;;;;10.66;59.80;100477.52;1768157;80;21199;-63
2023/03/24 02:47:14;;;;;;;28.17;17.95;;;;;;;10.65;59.95;100486.27;1768051;81;21211;-64
2023/03/24 02:50:52;;;;;;;28.07;18.48;;;;;;;10.64;60.05;100485.91;1767994;81;21316;-63
2023/03/24 02:54:24;;;;;;;31.73;19.17;;;;;;;10.64;60.08;100490.55;1768745;81;21250;-62
2023/03/24 02:57:49;;;;;;;30.30;19.73;;;;;;;10.63;60.09;100489.68;1768146;81;21399;-63
2023/03/24 03:01:05;;;;;;;32.70;19.62;;;;;;;10.62;60.12;100485.75;1768246;81;21222;-63
2023/03/24 03:04:22;;;;;;;30.30;19.10;;;;;;;10.61;60.14;100484.05;1704837;83;21200;-61
2023/03/24 03:07:36;;;;;;;28.77;19.25;;;;;;;10.61;60.16;100485.42;1704545;84;21212;-63
2023/03/24 03:10:46;;;;;;;29.55;19.35;;;;;;;10.58;60.13;100488.84;1704615;83;21355;-63
2023/03/24 03:14:14;;;;;;;33.83;20.35;;;;;;;10.57;60.08;100498.59;1704950;82;21195;-63
2023/03/24 03:17:31;;;;;;;32.83;19.20;;;;;;;10.56;60.16;100498.23;1703225;83;21197;-62
2023/03/24 03:20:41;;;;;;;33.83;19.77;;;;;;;10.56;60.24;100499.60;1736963;81;21212;-64
2023/03/24 03:24:14;;;;;;;31.65;19.48;;;;;;;10.58;60.28;100508.50;1759524;81;21217;-62
2023/03/24 03:27:26;;;;;;;30.70;17.75;;;;;;;10.58;60.32;100513.15;1759617;81;21342;-62
2023/03/24 03:30:43;;;;;;;31.80;18.45;;;;;;;10.58;60.40;100506.63;1759441;81;21213;-62
2023/03/24 03:33:56;;;;;;;27.17;17.95;;;;;;;10.59;60.47;100506.96;1759464;81;21189;-63
2023/03/24 03:37:05;;;;;;;26.62;17.55;;;;;;;10.63;60.54;100503.88;1759600;81;21217;-62
2023/03/24 03:40:18;;;;;;;24.47;16.73;;;;;;;10.63;60.54;100503.88;1759537;81;21184;-64
2023/03/24 03:43:27;;;;;;;28.57;16.93;;;;;;;10.63;60.59;100507.48;1759474;81;21181;-63
2023/03/24 03:46:34;;;;;;;25.40;15.98;;;;;;;10.64;60.65;100500.96;1759471;81;21189;-63
2023/03/24 03:49:43;;;;;;;22.73;15.75;;;;;;;10.65;60.65;100499.95;1759451;81;21430;-63
2023/03/24 03:52:49;;;;;;;26.55;16.65;;;;;;;10.68;60.72;100505.58;1759437;81;21185;-62
2023/03/24 03:55:55;;;;;;;27.80;15.78;;;;;;;10.69;60.74;100504.58;1759377;81;21391;-63
2023/03/24 03:59:03;;;;;;;23.42;16.93;;;;;;;10.71;60.77;100505.23;1759428;81;21181;-62
2023/03/24 04:02:27;;;;;;;23.65;15.43;;;;;;;10.74;60.83;100498.04;1759467;81;21394;-61
2023/03/24 04:05:45;;;;;;;29.70;16.50;;;;;;;10.78;60.85;100511.73;1759418;81;21177;-60
2023/03/24 04:09:11;;;;;;;21.65;14.50;;;;;;;10.79;60.86;100509.33;1739496;81;21165;-61
2023/03/24 04:12:27;;;;;;;33.20;16.05;;;;;;;10.80;60.84;100513.26;1759407;81;21173;-62
2023/03/24 04:15:43;;;;;;;24.40;15.18;;;;;;;10.82;60.88;100513.08;1738021;81;21303;-61
2023/03/24 04:19:26;;;;;;;30.00;18.10;;;;;;;10.83;60.87;100512.08;1759235;81;21201;-61
2023/03/24 04:22:40;;;;;;;26.68;16.35;;;;;;;10.85;60.90;100519.08;1709218;82;21212;-63
2023/03/24 04:26:04;;;;;;;25.05;16.50;;;;;;;10.86;60.93;100519.40;1708471;83;21225;-62
2023/03/24 04:29:45;;;;;;;26.80;15.98;;;;;;;10.88;60.98;100521.46;1708461;82;21193;-61
2023/03/24 04:33:27;;;;;;;26.25;15.18;;;;;;;10.91;60.97;100527.12;1707938;83;21193;-62
2023/03/24 04:36:54;;;;;;;22.15;14.55;;;;;;;10.93;60.99;100528.64;1708884;83;21208;-62
2023/03/24 04:40:04;;;;;;;23.62;15.72;;;;;;;10.96;61.05;100539.75;1708044;83;21209;-62
2023/03/24 04:43:12;;;;;;;24.63;15.48;;;;;;;10.99;61.00;100534.78;1708415;82;21229;-62
2023/03/24 04:46:17;;;;;;;30.17;16.95;;;;;;;11.03;60.93;100527.08;1708554;83;21212;-62
2023/03/24 04:49:33;;;;;;;33.33;18.35;;;;;;;11.07;60.94;100529.83;1708402;84;21236;-62
2023/03/24 04:52:41;;;;;;;28.42;17.05;;;;;;;11.10;60.94;100528.11;1708512;84;22002;-62
2023/03/24 04:56:36;;;;;;;29.48;16.80;;;;;;;11.13;60.97;100523.10;1708558;83;21220;-61
2023/03/24 04:59:54;;;;;;;21.27;15.10;;;;;;;11.17;60.92;100526.35;1708782;83;21209;-63
2023/03/24 05:03:00;;;;;;;32.58;19.85;;;;;;;11.21;60.99;100529.09;1708655;83;21229;-61
2023/03/24 05:06:08;;;;;;;40.10;25.50;;;;;;;11.27;61.02;100524.27;1708413;82;21216;-62
2023/03/24 05:09:16;;;;;;;26.15;19.25;;;;;;;11.32;60.97;100523.23;1708515;83;21185;-62
2023/03/24 05:12:23;;;;;;;26.57;16.75;;;;;;;11.36;61.00;100526.80;1708556;83;21220;-61
2023/03/24 05:15:35;;;;;;;;;;;;;;;11.42;61.00;100517.86;1711170;82;21228;-62
2023/03/24 05:18:47;;;;;;;34.38;19.80;;;;;;;11.45;60.95;100518.87;1700113;84;20216;-62
2023/03/24 05:21:55;;;;;;;40.98;22.55;;;;;;;11.50;60.98;100514.22;1697268;81;21225;-62
2023/03/24 05:25:01;;;;;;;46.88;24.40;;;;;;;11.56;60.97;100516.28;1719206;82;21314;-62
2023/03/24 05:28:07;;;;;;;38.45;22.17;;;;;;;11.61;60.97;100513.83;1718432;83;21199;-62
2023/03/24 05:31:13;;;;;;;36.05;22.25;;;;;;;11.69;60.99;100511.08;1723486;82;21226;-62
2023/03/24 05:34:27;;;;;;;30.40;18.30;;;;;;;11.78;61.01;100513.59;1718134;82;21760;-62
2023/03/24 05:37:38;;;;;;;29.57;17.75;;;;;;;11.88;60.96;100510.63;1723224;82;21763;-61
2023/03/24 05:40:39;;;;;;;25.43;15.78;;;;;;;11.98;60.96;100509.88;1718232;82;21680;-61
2023/03/24 05:43:45;;;;;;;25.15;14.45;;;;;;;12.09;60.98;100513.57;1723779;82;21404;-62
2023/03/24 05:46:51;;;;;;;21.87;15.58;;;;;;;12.21;61.00;100509.35;1709635;83;21214;-62
2023/03/24 05:49:57;;;;;;;28.98;16.12;;;;;;;12.33;60.98;100507.04;1721565;83;21288;-60
2023/03/24 05:53:02;;;;;;;31.50;18.67;;;;;;;12.44;60.95;100508.84;1717692;83;21191;-61
2023/03/24 05:56:12;;;;;;;23.85;14.20;;;;;;;12.55;60.93;100508.39;1710114;82;21799;-62
2023/03/24 05:59:22;;;;;;;27.05;15.00;;;;;;;12.67;60.90;100508.81;1702902;82;21282;-62
2023/03/24 06:02:30;;;;;;;25.43;16.32;;;;;;;12.74;60.85;100504.26;1721122;83;21823;-61
2023/03/24 06:05:46;;;;;;;23.52;13.85;;;;;;;12.82;60.87;100505.55;1687457;83;21238;-60
2023/03/24 06:08:53;;;;;;;21.68;14.58;;;;;;;12.92;60.87;100498.73;1693281;84;21234;-63
2023/03/24 06:11:58;;;;;;;26.90;16.27;;;;;;;13.01;60.88;100493.54;1704968;83;21235;-63
2023/03/24 06:15:06;;;;;;;22.15;14.20;;;;;;;13.09;60.83;100492.58;1717625;82;21198;-62
2023/03/24 06:18:13;;;;;;;26.65;14.78;;;;;;;13.18;60.81;100503.81;1717350;82;21192;-62
2023/03/24 06:21:20;;;;;;;20.23;14.10;;;;;;;13.26;60.79;100505.09;1699006;82;21207;-63
2023/03/24 06:24:28;;;;;;;23.15;13.72;;;;;;;13.38;60.77;100512.66;1709855;82;21262;-62
2023/03/24 06:27:35;;;;;;;22.55;14.15;;;;;;;13.47;60.74;100507.41;1685495;84;21204;-61
2023/03/24 06:30:43;;;;;;;22.37;13.55;;;;;;;13.58;60.70;100509.33;1699947;84;21240;-61
2023/03/24 06:33:55;;;;;;;20.75;13.25;;;;;;;13.65;60.67;100512.52;1714891;83;21196;-62
2023/03/24 06:37:01;;;;;;;21.55;14.20;;;;;;;13.71;60.64;100513.62;1767658;79;21358;-60
2023/03/24 06:40:14;;;;;;;28.67;15.13;;;;;;;13.75;60.62;100517.72;1767453;81;21338;-62
2023/03/24 06:43:18;;;;;;;27.02;13.58;;;;;;;13.79;60.61;100515.76;1767314;81;21293;-62
2023/03/24 06:46:25;;;;;;;23.22;14.35;;;;;;;13.84;60.61;100522.05;1737950;81;21590;-63
2023/03/24 06:49:33;;;;;;;17.12;11.83;;;;;;;13.91;60.62;100522.96;1728132;81;21200;-61
2023/03/24 06:52:41;;;;;;;21.27;12.98;;;;;;;13.97;60.58;100511.20;1720899;82;21788;-63
2023/03/24 06:55:46;;;;;;;21.27;14.28;;;;;;;14.04;60.56;100516.23;1717126;81;21236;-62
2023/03/24 06:58:55;;;;;;;23.60;13.30;;;;;;;14.11;60.50;100517.18;1669245;85;21208;-62
2023/03/24 07:02:02;;;;;;;24.23;12.35;;;;;;;14.12;60.43;100512.85;1685564;84;21198;-61
2023/03/24 07:05:12;;;;;;;19.48;11.43;;;;;;;14.14;60.41;100518.16;1711348;83;21503;-61
2023/03/24 07:08:18;;;;;;;15.45;10.75;;;;;;;14.13;60.37;100515.09;1696663;83;21607;-62
2023/03/24 07:11:26;;;;;;;16.10;10.50;;;;;;;14.17;60.35;100513.64;1701257;83;21244;-63
2023/03/24 07:14:31;;;;;;;17.27;10.55;;;;;;;14.17;60.28;100504.00;1673821;85;21251;-62
2023/03/24 07:17:38;;;;;;;33.95;18.65;;;;;;;14.16;60.25;100498.18;1693203;83;21843;-62
2023/03/24 07:20:46;;;;;;;16.60;10.82;;;;;;;14.18;60.26;100513.95;1673479;84;21205;-63
2023/03/24 07:23:52;;;;;;;13.90;10.63;;;;;;;14.23;60.29;100519.22;1678799;82;21223;-63
2023/03/24 07:27:01;;;;;;;18.32;10.00;;;;;;;14.29;60.25;100513.47;1690213;84;21267;-63
2023/03/24 07:30:08;;;;;;;17.45;11.18;;;;;;;14.36;60.28;100517.16;1640246;86;21265;-64
2023/03/24 07:33:17;;;;;;;19.05;11.40;;;;;;;14.40;60.21;100511.05;1650863;84;21283;-63
2023/03/24 07:36:23;;;;;;;21.65;12.80;;;;;;;14.45;60.17;100512.69;1675753;83;21785;-63
2023/03/24 07:39:32;;;;;;;18.90;11.40;;;;;;;14.47;60.14;100506.47;1675214;83;21221;-63
2023/03/24 07:42:38;;;;;;;21.62;11.83;;;;;;;14.52;60.15;100505.87;1668404;85;21564;-64
2023/03/24 07:45:55;;;;;;;19.73;11.57;;;;;;;14.57;60.12;100501.45;1669443;83;21245;-64
2023/03/24 07:49:01;;;;;;;17.00;11.55;;;;;;;14.64;60.09;100503.75;1699244;84;21595;-61
2023/03/24 07:52:13;;;;;;;25.57;13.15;;;;;;;14.71;60.05;100505.19;1703689;83;21225;-64
2023/03/24 07:55:20;;;;;;;22.52;11.43;;;;;;;14.81;60.02;100496.02;1665985;84;21288;-64
2023/03/24 07:58:27;;;;;;;19.00;10.63;;;;;;;14.92;60.00;100484.48;1664859;85;21208;-62
2023/03/24 08:01:38;;;;;;;17.82;10.30;;;;;;;15.04;59.99;100481.47;1697036;84;21225;-64
2023/03/24 08:04:52;;;;;;;19.70;11.10;;;;;;;15.16;59.87;100483.98;1684276;83;21819;-64
2023/03/24 08:08:09;;;;;;;15.55;9.90;;;;;;;15.22;59.79;100476.30;1649631;85;21225;-61
2023/03/24 08:11:17;;;;;;;18.20;9.23;;;;;;;15.35;59.74;100478.27;1646644;87;21228;-64
2023/03/24 08:14:25;;;;;;;18.67;10.60;;;;;;;15.48;59.74;100476.97;1679072;84;21320;-63
2023/03/24 08:17:33;;;;;;;15.45;8.50;;;;;;;15.61;59.60;100468.75;1678961;84;21233;-61
2023/03/24 08:20:40;;;;;;;15.08;8.70;;;;;;;15.77;59.55;100462.88;1742342;81;21184;-59
2023/03/24 08:23:47;;;;;;;13.75;7.92;;;;;;;15.94;59.48;100460.05;1714613;82;21258;-61
2023/03/24 08:26:57;;;;;;;11.40;8.20;;;;;;;16.13;59.38;100462.00;1771372;79;21176;-61
2023/03/24 08:30:01;;;;;;;15.88;8.78;;;;;;;16.29;59.22;100450.03;1687652;83;21800;-62
2023/03/24 08:33:08;;;;;;;16.25;8.90;;;;;;;16.44;59.16;100456.23;1680199;82;21205;-63
2023/03/24 08:36:16;;;;;;;25.23;13.83;;;;;;;16.62;59.02;100453.38;1697604;82;21292;-61
2023/03/24 08:39:23;;;;;;;12.37;8.03;;;;;;;16.80;58.86;100445.27;1679437;82;21232;-61
2023/03/24 08:42:28;;;;;;;12.65;6.83;;;;;;;16.95;58.69;100451.44;1717049;82;21213;-58
2023/03/24 08:45:32;;;;;;;11.57;7.22;;;;;;;17.09;58.55;100443.42;1715522;83;21255;-58
2023/03/24 08:48:27;;;;;;;17.50;8.30;;;;;;;17.29;58.50;100440.06;1761565;80;21523;-57
2023/03/24 08:51:32;;;;;;;12.75;7.28;;;;;;;17.54;58.54;100436.91;1751344;81;21212;-57
2023/03/24 08:54:39;;;;;;;13.25;8.10;;;;;;;17.78;58.49;100435.62;1701922;82;21252;-57
2023/03/24 08:57:47;;;;;;;15.98;10.60;;;;;;;17.98;58.35;100434.14;1671889;85;21573;-57
2023/03/24 09:00:54;;;;;;;14.45;8.68;;;;;;;18.07;58.22;100427.78;1714845;82;21280;-57
2023/03/24 09:03:59;;;;;;;29.55;14.35;;;;;;;18.14;58.14;100432.76;1746687;80;21633;-57
2023/03/24 09:07:07;;;;;;;17.80;9.20;;;;;;;18.14;58.05;100430.81;1706944;81;21353;-57
2023/03/24 09:10:15;;;;;;;19.17;9.65;;;;;;;18.18;58.03;100422.91;1697058;82;21229;-57
2023/03/24 09:13:22;;;;;;;16.20;7.85;;;;;;;18.22;57.93;100425.00;1659269;82;21272;-57
2023/03/24 09:16:29;;;;;;;35.50;17.95;;;;;;;18.28;57.90;100426.04;1685095;83;21248;-57
2023/03/24 09:19:35;;;;;;;16.75;10.00;;;;;;;18.36;57.82;100433.52;1702326;83;21786;-57
2023/03/24 09:22:44;;;;;;;21.73;11.15;;;;;;;18.45;57.75;100421.14;1692469;82;21229;-57
2023/03/24 09:25:50;;;;;;;18.02;11.18;;;;;;;18.57;57.75;100412.91;1707816;82;21205;-56
2023/03/24 09:28:56;;;;;;;17.52;9.23;;;;;;;18.72;57.71;100404.58;1700055;83;21202;-57
2023/03/24 09:32:02;;;;;;;15.50;9.10;;;;;;;18.93;57.68;100402.74;1705349;82;21212;-57
2023/03/24 09:35:09;;;;;;;20.40;11.78;;;;;;;19.04;57.55;100399.20;1719098;83;21888;-56
2023/03/24 09:38:16;;;;;;;13.72;8.38;;;;;;;19.09;57.41;100400.76;1696531;83;21856;-58
2023/03/24 09:41:34;;;;;;;15.13;8.45;;;;;;;19.18;57.36;100398.01;1674799;82;21903;-58
2023/03/24 09:44:46;;;;;;;18.85;11.28;;;;;;;19.36;57.31;100400.50;1709461;81;22050;-57
2023/03/24 09:48:03;;;;;;;14.95;9.48;;;;;;;19.45;57.19;100400.48;1720020;82;21204;-57
2023/03/24 09:51:20;;;;;;;17.92;9.43;;;;;;;19.44;57.09;100402.96;1679219;85;21232;-56
2023/03/24 09:54:44;;;;;;;12.90;8.50;;;;;;;19.42;56.97;100412.05;1697705;82;21734;-57
2023/03/24 09:57:53;;;;;;;17.95;10.32;;;;;;;19.35;56.85;100409.36;1675780;82;21210;-57
2023/03/24 10:01:00;;;;;;;15.85;9.00;;;;;;;19.22;56.81;100408.09;1690347;82;21324;-56
2023/03/24 10:04:05;;;;;;;22.00;12.68;;;;;;;19.15;56.79;100417.05;1709224;83;21213;-57
2023/03/24 10:07:36;;;;;;;38.25;20.92;;;;;;;19.17;56.80;100426.83;1713882;82;21762;-57
2023/03/24 10:11:01;;;;;;;19.95;11.60;;;;;;;19.23;56.71;100409.80;1691384;82;21256;-56
2023/03/24 10:14:20;;;;;;;37.45;22.00;;;;;;;19.27;56.59;100413.27;1720727;82;21208;-56
2023/03/24 10:17:39;;;;;;;23.22;13.93;;;;;;;19.44;56.62;100419.63;1672175;85;21314;-55
2023/03/24 10:21:19;;;;;;;31.07;16.85;;;;;;;19.59;56.49;100412.58;1673432;85;21232;-55
2023/03/24 10:24:38;;;;;;;27.95;16.17;;;;;;;19.83;56.44;100410.23;1692173;82;21622;-57
2023/03/24 10:27:49;;;;;;;20.12;11.68;;;;;;;20.09;56.23;100399.27;1719287;82;21607;-56
2023/03/24 10:30:56;;;;;;;22.75;14.18;;;;;;;20.17;55.88;100405.35;1701446;83;21734;-56
2023/03/24 10:34:01;;;;;;;34.33;16.67;;;;;;;20.10;55.55;100408.77;1763097;79;21205;-56
2023/03/24 10:37:10;;;;;;;14.80;9.88;;;;;;;20.02;55.32;100407.70;1759723;81;21196;-56
2023/03/24 10:40:25;;;;;;;16.75;10.68;;;;;;;19.95;55.13;100395.83;1728096;83;21280;-55
2023/03/24 10:43:32;;;;;;;13.75;9.95;;;;;;;20.02;55.06;100394.34;1742013;81;21192;-56
2023/03/24 10:46:39;;;;;;;33.28;15.15;;;;;;;20.08;54.85;100390.61;1754381;81;21205;-56
2023/03/24 10:50:00;;;;;;;26.65;13.75;;;;;;;20.04;54.64;100389.41;1689391;82;21852;-56
2023/03/24 10:53:23;;;;;;;34.80;18.07;;;;;;;20.02;54.48;100398.51;1730559;81;21633;-56
2023/03/24 10:56:56;;;;;;;15.90;10.08;;;;;;;19.99;54.35;100390.12;1696327;82;22050;-55
2023/03/24 11:00:17;;;;;;;21.93;13.22;;;;;;;20.00;54.28;100383.46;1725576;82;21185;-56
2023/03/24 11:03:31;;;;;;;20.85;12.33;;;;;;;20.01;54.18;100374.59;1694953;82;21273;-56
2023/03/24 11:06:38;;;;;;;20.20;11.22;;;;;;;20.14;54.15;100374.39;1706579;83;21263;-57
2023/03/24 11:09:49;;;;;;;19.15;12.80;;;;;;;20.19;53.94;100371.75;1733850;81;21197;-58
2023/03/24 11:13:06;;;;;;;20.25;11.08;;;;;;;20.24;53.79;100362.16;1749627;81;21193;-61
2023/03/24 11:16:19;;;;;;;19.45;11.57;;;;;;;20.28;53.60;100360.61;1726180;82;21299;-60
2023/03/24 11:19:31;;;;;;;15.20;10.35;;;;;;;20.31;53.54;100360.95;1692552;83;21292;-60
2023/03/24 11:22:37;;;;;;;19.60;11.28;;;;;;;20.32;53.44;100362.67;1691595;84;21745;-60
2023/03/24 11:25:46;;;;;;;17.02;9.58;;;;;;;20.30;53.29;100352.32;1679953;83;21311;-60
2023/03/24 11:29:01;;;;;;;15.38;9.98;;;;;;;20.23;53.18;100352.96;1702160;83;21268;-62
2023/03/24 11:32:09;;;;;;;17.20;10.15;;;;;;;20.15;53.11;100341.36;1689691;82;21186;-61
2023/03/24 11:35:18;;;;;;;17.30;10.82;;;;;;;20.12;53.07;100344.02;1689810;83;21753;-63
2023/03/24 11:38:40;;;;;;;22.07;14.35;;;;;;;20.23;53.13;100347.97;1676111;83;21260;-62
2023/03/24 11:41:59;;;;;;;12.60;9.23;;;;;;;20.35;53.03;100348.81;1682713;83;21230;-61
2023/03/24 11:45:49;;;;;;;15.43;9.08;;;;;;;20.52;53.01;100342.30;1680363;83;21954;-63
2023/03/24 11:49:02;;;;;;;14.25;9.53;;;;;;;20.86;52.93;100332.26;1694933;83;21272;-62
2023/03/24 11:52:08;;;;;;;15.08;9.45;;;;;;;21.03;52.72;100326.27;1699662;84;21247;-61
2023/03/24 11:55:23;;;;;;;16.17;8.58;;;;;;;21.21;52.63;100337.25;1707957;82;21236;-60
2023/03/24 11:58:54;;;;;;;15.23;8.68;;;;;;;21.42;52.51;100331.56;1699172;82;21866;-61
2023/03/24 12:02:25;;;;;;;15.18;9.70;;;;;;;21.48;52.23;100332.81;1698481;83;21211;-61
2023/03/24 12:05:51;;;;;;;16.42;8.90;;;;;;;21.43;51.93;100331.31;1689898;84;21220;-61
2023/03/24 12:09:35;;;;;;;18.25;9.75;;;;;;;21.22;51.63;100317.19;1689699;83;21216;-62
2023/03/24 12:13:03;;;;;;;14.13;11.38;;;;;;;21.21;51.72;100341.43;1671825;85;21304;-60
2023/03/24 12:16:36;;;;;;;18.82;12.60;;;;;;;21.25;51.62;100318.13;1696370;83;21616;-60
2023/03/24 12:20:24;;;;;;;16.40;12.45;;;;;;;21.27;51.36;100311.73;1673311;84;21322;-60
2023/03/24 12:23:41;;;;;;;21.12;14.93;;;;;;;21.20;51.18;100314.66;1678412;83;21205;-60
2023/03/24 12:26:47;;;;;;;13.93;10.80;;;;;;;21.04;50.92;100320.16;1675593;84;21223;-60
2023/03/24 12:30:09;;;;;;;15.13;10.78;;;;;;;21.01;50.88;100313.70;1696594;82;21301;-59
2023/03/24 12:33:26;;;;;;;19.82;11.12;;;;;;;20.98;50.69;100312.23;1668031;82;21216;-60
2023/03/24 12:37:02;;;;;;;17.07;10.70;;;;;;;20.87;50.49;100315.84;1710975;83;21324;-60
2023/03/24 12:40:32;;;;;;;17.10;11.38;;;;;;;20.81;50.41;100312.66;1703553;82;21203;-61
2023/03/24 12:43:57;;;;;;;17.92;11.75;;;;;;;20.78;50.37;100311.76;1688628;85;21717;-62
2023/03/24 12:47:21;;;;;;;17.98;13.05;;;;;;;20.75;50.24;100308.08;1696933;84;21833;-61
2023/03/24 12:50:46;;;;;;;16.27;10.93;;;;;;;20.87;50.38;100310.28;1695130;81;21252;-62
2023/03/24 12:54:04;;;;;;;17.32;9.00;;;;;;;21.15;50.49;100302.05;1701097;82;21295;-63
2023/03/24 12:57:17;;;;;;;11.88;8.25;;;;;;;21.32;50.42;100294.59;1700086;81;21293;-62
2023/03/24 13:00:32;;;;;;;14.25;7.72;;;;;;;21.40;50.30;100305.34;1689588;82;21225;-61
2023/03/24 13:03:45;;;;;;;10.80;8.20;;;;;;;21.43;50.25;100294.25;1701153;83;21213;-60
2023/03/24 13:07:04;;;;;;;11.75;8.55;;;;;;;21.49;50.26;100302.45;1680639;82;21662;-61
2023/03/24 13:10:28;;;;;;;13.38;8.13;;;;;;;21.41;50.15;100309.81;1698832;83;21217;-62
2023/03/24 13:13:42;;;;;;;10.35;7.97;;;;;;;21.32;50.33;100301.56;1702759;83;21228;-60
2023/03/24 13:16:50;;;;;;;14.45;7.58;;;;;;;21.26;50.33;100301.16;1684021;83;21205;-62
2023/03/24 13:19:58;;;;;;;11.38;8.33;;;;;;;21.20;50.25;100297.95;1698580;83;21186;-61
2023/03/24 13:23:07;;;;;;;11.95;8.98;;;;;;;21.10;50.13;100299.16;1678809;84;21213;-60
2023/03/24 13:27:07;;;;;;;12.25;8.10;;;;;;;20.97;50.09;100302.20;1694414;83;21309;-59
2023/03/24 13:30:43;;;;;;;12.47;8.55;;;;;;;20.83;50.05;100296.00;1692714;84;21240;-60
2023/03/24 13:33:49;;;;;;;17.98;11.57;;;;;;;20.73;50.05;100298.58;1708727;83;21192;-61
2023/03/24 13:37:01;;;;;;;15.38;9.25;;;;;;;20.73;50.02;100292.16;1697627;84;21228;-60
2023/03/24 13:40:15;;;;;;;;;;;;;;;20.69;49.91;100278.45;1708526;82;21828;-61
2023/03/24 13:43:30;;;;;;;13.50;9.85;;;;;;;20.73;49.93;100287.98;1686468;83;20210;-61
2023/03/24 13:46:36;;;;;;;19.98;11.57;;;;;;;20.76;49.89;100284.18;1710120;83;21217;-60
2023/03/24 13:49:42;;;;;;;15.28;10.30;;;;;;;20.86;49.84;100284.95;1696974;83;21369;-60
2023/03/24 13:52:56;;;;;;;22.65;13.85;;;;;;;20.91;49.83;100279.50;1708148;82;21272;-60
2023/03/24 13:56:04;;;;;;;27.15;13.00;;;;;;;20.94;49.71;100276.76;1674617;83;22157;-59
2023/03/24 13:59:32;;;;;;;27.45;14.65;;;;;;;20.95;49.59;100275.69;1746228;81;21207;-59
2023/03/24 14:02:53;;;;;;;25.27;15.28;;;;;;;20.97;49.52;100272.12;1697305;84;21233;-59
2023/03/24 14:06:09;;;;;;;20.40;12.73;;;;;;;20.97;49.44;100281.86;1698273;84;21220;-59
2023/03/24 14:09:37;;;;;;;30.95;16.62;;;;;;;20.97;49.34;100271.58;1705964;83;21188;-58
2023/03/24 14:12:42;;;;;;;29.40;16.40;;;;;;;20.95;49.26;100272.33;1723226;81;21226;-59
2023/03/24 14:16:02;;;;;;;16.65;10.55;;;;;;;20.91;49.22;100268.36;1638861;85;21220;-59
2023/03/24 14:19:24;;;;;;;15.10;10.65;;;;;;;20.95;49.23;100272.33;1711978;82;21973;-60
2023/03/24 14:22:48;;;;;;;22.13;13.62;;;;;;;20.94;49.17;100265.62;1701725;82;21547;-59
2023/03/24 14:26:01;;;;;;;33.70;15.50;;;;;;;20.94;49.12;100258.13;1708659;82;21539;-61
2023/03/24 14:29:08;;;;;;;25.57;14.65;;;;;;;20.90;49.02;100262.48;1692625;83;21193;-59
2023/03/24 14:32:22;;;;;;;23.02;15.05;;;;;;;20.88;48.99;100260.51;1710951;81;21279;-60
2023/03/24 14:35:42;;;;;;;17.92;11.50;;;;;;;20.86;48.96;100247.37;1697026;83;21220;-61
2023/03/24 14:38:49;;;;;;;26.07;14.45;;;;;;;20.89;48.96;100251.59;1711996;83;21563;-60
2023/03/24 14:41:55;;;;;;;19.40;12.40;;;;;;;20.84;48.96;100248.16;1672073;84;21245;-62